sensor_id;sensor_type;location;lat;lon;timestamp;temperature;humidity
24426;DHT22;12611;44.446;26.000;2023-07-02T00:00:22;24.20;65.20
24426;DHT22;12611;44.446;26.000;2023-07-02T00:02:51;24.10;66.00
24426;DHT22;12611;44.446;26.000;2023-07-02T00:05:19;24.10;65.90
24426;DHT22;12611;44.446;26.000;2023-07-02T00:07:49;24.00;65.80
24426;DHT22;12611;44.446;26.000;2023-07-02T00:10:19;24.00;66.10
24426;DHT22;12611;44.446;26.000;2023-07-02T00:12:47;24.00;66.20
24426;DHT22;12611;44.446;26.000;2023-07-02T00:15:16;24.00;66.30
24426;DHT22;12611;44.446;26.000;2023-07-02T00:17:44;23.90;73.50
24426;DHT22;12611;44.446;26.000;2023-07-02T00:20:13;23.80;73.30
24426;DHT22;12611;44.446;26.000;2023-07-02T00:22:44;23.80;71.60
24426;DHT22;12611;44.446;26.000;2023-07-02T00:25:15;23.70;72.50
24426;DHT22;12611;44.446;26.000;2023-07-02T00:27:43;23.70;75.60
24426;DHT22;12611;44.446;26.000;2023-07-02T00:30:12;23.60;74.00
24426;DHT22;12611;44.446;26.000;2023-07-02T00:32:40;23.60;76.50
24426;DHT22;12611;44.446;26.000;2023-07-02T00:35:09;23.50;75.90
24426;DHT22;12611;44.446;26.000;2023-07-02T00:37:37;23.50;75.20
24426;DHT22;12611;44.446;26.000;2023-07-02T00:40:06;23.40;78.20
24426;DHT22;12611;44.446;26.000;2023-07-02T00:42:36;23.40;77.80
24426;DHT22;12611;44.446;26.000;2023-07-02T00:45:06;23.30;78.30
24426;DHT22;12611;44.446;26.000;2023-07-02T00:47:35;23.30;78.10
24426;DHT22;12611;44.446;26.000;2023-07-02T00:50:05;23.30;77.30
24426;DHT22;12611;44.446;26.000;2023-07-02T00:52:36;23.30;77.00
24426;DHT22;12611;44.446;26.000;2023-07-02T00:55:06;23.30;78.80
24426;DHT22;12611;44.446;26.000;2023-07-02T00:57:36;23.30;78.00
24426;DHT22;12611;44.446;26.000;2023-07-02T01:00:08;23.30;77.90
24426;DHT22;12611;44.446;26.000;2023-07-02T01:02:37;23.30;77.10
24426;DHT22;12611;44.446;26.000;2023-07-02T01:05:05;23.30;76.80
24426;DHT22;12611;44.446;26.000;2023-07-02T01:07:35;23.30;76.60
24426;DHT22;12611;44.446;26.000;2023-07-02T01:10:03;23.30;76.50
24426;DHT22;12611;44.446;26.000;2023-07-02T01:12:32;23.30;76.50
24426;DHT22;12611;44.446;26.000;2023-07-02T01:15:04;23.30;76.30
24426;DHT22;12611;44.446;26.000;2023-07-02T01:17:35;23.30;77.60
24426;DHT22;12611;44.446;26.000;2023-07-02T01:20:11;23.30;77.10
24426;DHT22;12611;44.446;26.000;2023-07-02T01:22:41;23.30;76.90
24426;DHT22;12611;44.446;26.000;2023-07-02T01:25:09;23.20;77.90
24426;DHT22;12611;44.446;26.000;2023-07-02T01:27:38;23.20;78.60
24426;DHT22;12611;44.446;26.000;2023-07-02T01:30:08;23.20;78.50
24426;DHT22;12611;44.446;26.000;2023-07-02T01:32:38;23.20;79.20
24426;DHT22;12611;44.446;26.000;2023-07-02T01:35:09;23.10;80.10
24426;DHT22;12611;44.446;26.000;2023-07-02T01:37:37;23.10;79.70
24426;DHT22;12611;44.446;26.000;2023-07-02T01:40:07;23.10;79.70
24426;DHT22;12611;44.446;26.000;2023-07-02T01:42:37;23.10;79.70
24426;DHT22;12611;44.446;26.000;2023-07-02T01:45:06;23.10;79.10
24426;DHT22;12611;44.446;26.000;2023-07-02T01:47:35;23.10;78.70
24426;DHT22;12611;44.446;26.000;2023-07-02T01:50:05;23.10;79.80
24426;DHT22;12611;44.446;26.000;2023-07-02T01:52:35;23.00;81.10
24426;DHT22;12611;44.446;26.000;2023-07-02T01:55:04;23.00;81.30
24426;DHT22;12611;44.446;26.000;2023-07-02T01:57:33;23.00;81.50
24426;DHT22;12611;44.446;26.000;2023-07-02T02:00:01;23.00;81.40
24426;DHT22;12611;44.446;26.000;2023-07-02T02:02:30;23.00;82.20
24426;DHT22;12611;44.446;26.000;2023-07-02T02:04:59;23.00;81.50
24426;DHT22;12611;44.446;26.000;2023-07-02T02:07:27;23.00;81.90
24426;DHT22;12611;44.446;26.000;2023-07-02T02:09:57;23.00;82.20
24426;DHT22;12611;44.446;26.000;2023-07-02T02:12:25;23.00;83.70
24426;DHT22;12611;44.446;26.000;2023-07-02T02:14:55;23.00;84.10
24426;DHT22;12611;44.446;26.000;2023-07-02T02:17:24;23.00;83.30
24426;DHT22;12611;44.446;26.000;2023-07-02T02:19:52;23.00;83.30
24426;DHT22;12611;44.446;26.000;2023-07-02T02:22:20;22.90;82.90
24426;DHT22;12611;44.446;26.000;2023-07-02T02:24:49;23.00;82.90
24426;DHT22;12611;44.446;26.000;2023-07-02T02:27:18;23.00;83.40
24426;DHT22;12611;44.446;26.000;2023-07-02T02:29:47;23.00;82.90
24426;DHT22;12611;44.446;26.000;2023-07-02T02:32:15;23.00;82.50
24426;DHT22;12611;44.446;26.000;2023-07-02T02:34:46;23.00;82.00
24426;DHT22;12611;44.446;26.000;2023-07-02T02:37:15;23.00;82.00
24426;DHT22;12611;44.446;26.000;2023-07-02T02:39:43;23.00;81.90
24426;DHT22;12611;44.446;26.000;2023-07-02T02:42:11;23.10;81.60
24426;DHT22;12611;44.446;26.000;2023-07-02T02:44:41;23.10;81.30
24426;DHT22;12611;44.446;26.000;2023-07-02T02:47:09;23.10;81.30
24426;DHT22;12611;44.446;26.000;2023-07-02T02:49:38;23.10;81.00
24426;DHT22;12611;44.446;26.000;2023-07-02T02:52:07;23.20;80.90
24426;DHT22;12611;44.446;26.000;2023-07-02T02:54:35;23.20;81.00
24426;DHT22;12611;44.446;26.000;2023-07-02T02:57:04;23.20;80.80
24426;DHT22;12611;44.446;26.000;2023-07-02T02:59:32;23.20;81.20
24426;DHT22;12611;44.446;26.000;2023-07-02T03:02:02;23.20;81.70
24426;DHT22;12611;44.446;26.000;2023-07-02T03:04:31;23.20;82.50
24426;DHT22;12611;44.446;26.000;2023-07-02T03:07:00;23.20;82.70
24426;DHT22;12611;44.446;26.000;2023-07-02T03:09:30;23.10;82.20
24426;DHT22;12611;44.446;26.000;2023-07-02T03:11:58;23.20;82.60
24426;DHT22;12611;44.446;26.000;2023-07-02T03:14:27;23.20;82.30
24426;DHT22;12611;44.446;26.000;2023-07-02T03:16:55;23.20;82.00
24426;DHT22;12611;44.446;26.000;2023-07-02T03:19:26;23.20;81.90
24426;DHT22;12611;44.446;26.000;2023-07-02T03:21:54;23.20;82.30
24426;DHT22;12611;44.446;26.000;2023-07-02T03:24:22;23.20;82.60
24426;DHT22;12611;44.446;26.000;2023-07-02T03:26:50;23.20;82.90
24426;DHT22;12611;44.446;26.000;2023-07-02T03:29:19;23.20;83.10
24426;DHT22;12611;44.446;26.000;2023-07-02T03:31:47;23.20;84.20
24426;DHT22;12611;44.446;26.000;2023-07-02T03:34:15;23.20;84.50
24426;DHT22;12611;44.446;26.000;2023-07-02T03:36:45;23.30;85.40
24426;DHT22;12611;44.446;26.000;2023-07-02T03:39:13;23.20;85.10
24426;DHT22;12611;44.446;26.000;2023-07-02T03:41:41;23.30;85.10
24426;DHT22;12611;44.446;26.000;2023-07-02T03:44:10;23.30;85.00
24426;DHT22;12611;44.446;26.000;2023-07-02T03:46:38;23.30;85.00
24426;DHT22;12611;44.446;26.000;2023-07-02T03:49:07;23.30;84.50
24426;DHT22;12611;44.446;26.000;2023-07-02T03:51:36;23.40;84.70
24426;DHT22;12611;44.446;26.000;2023-07-02T03:54:07;23.40;84.40
24426;DHT22;12611;44.446;26.000;2023-07-02T03:56:35;23.30;84.90
24426;DHT22;12611;44.446;26.000;2023-07-02T03:59:03;23.40;85.60
24426;DHT22;12611;44.446;26.000;2023-07-02T04:01:32;23.40;85.40
24426;DHT22;12611;44.446;26.000;2023-07-02T04:04:00;23.40;85.80
24426;DHT22;12611;44.446;26.000;2023-07-02T04:06:28;23.50;86.20
24426;DHT22;12611;44.446;26.000;2023-07-02T04:08:57;23.50;86.20
24426;DHT22;12611;44.446;26.000;2023-07-02T04:11:26;23.50;86.30
24426;DHT22;12611;44.446;26.000;2023-07-02T04:13:55;23.50;87.30
24426;DHT22;12611;44.446;26.000;2023-07-02T04:16:26;23.50;87.20
24426;DHT22;12611;44.446;26.000;2023-07-02T04:18:55;23.50;87.10
24426;DHT22;12611;44.446;26.000;2023-07-02T04:21:23;23.50;86.80
24426;DHT22;12611;44.446;26.000;2023-07-02T04:23:51;23.50;86.70
24426;DHT22;12611;44.446;26.000;2023-07-02T04:26:20;23.60;87.00
24426;DHT22;12611;44.446;26.000;2023-07-02T04:29:10;23.60;87.70
24426;DHT22;12611;44.446;26.000;2023-07-02T04:31:39;23.60;87.70
24426;DHT22;12611;44.446;26.000;2023-07-02T04:34:07;23.60;87.10
24426;DHT22;12611;44.446;26.000;2023-07-02T04:36:36;23.60;87.20
24426;DHT22;12611;44.446;26.000;2023-07-02T04:39:04;23.60;88.20
24426;DHT22;12611;44.446;26.000;2023-07-02T04:41:32;23.60;88.60
24426;DHT22;12611;44.446;26.000;2023-07-02T04:44:01;23.60;89.50
24426;DHT22;12611;44.446;26.000;2023-07-02T04:46:31;23.70;89.50
24426;DHT22;12611;44.446;26.000;2023-07-02T04:49:00;23.70;89.90
24426;DHT22;12611;44.446;26.000;2023-07-02T04:51:29;23.60;90.30
24426;DHT22;12611;44.446;26.000;2023-07-02T04:53:57;23.70;90.20
24426;DHT22;12611;44.446;26.000;2023-07-02T04:56:26;23.70;90.30
24426;DHT22;12611;44.446;26.000;2023-07-02T04:58:54;23.70;90.50
24426;DHT22;12611;44.446;26.000;2023-07-02T05:01:23;23.70;90.50
24426;DHT22;12611;44.446;26.000;2023-07-02T05:03:52;23.70;90.20
24426;DHT22;12611;44.446;26.000;2023-07-02T05:06:22;23.70;90.10
24426;DHT22;12611;44.446;26.000;2023-07-02T05:08:50;23.80;90.40
24426;DHT22;12611;44.446;26.000;2023-07-02T05:11:20;23.80;90.30
24426;DHT22;12611;44.446;26.000;2023-07-02T05:13:48;23.80;90.40
24426;DHT22;12611;44.446;26.000;2023-07-02T05:16:17;23.80;90.30
24426;DHT22;12611;44.446;26.000;2023-07-02T05:18:45;23.80;90.50
24426;DHT22;12611;44.446;26.000;2023-07-02T05:21:17;23.90;90.40
24426;DHT22;12611;44.446;26.000;2023-07-02T05:23:46;23.90;90.60
24426;DHT22;12611;44.446;26.000;2023-07-02T05:26:15;23.90;90.70
24426;DHT22;12611;44.446;26.000;2023-07-02T05:28:43;24.00;90.60
24426;DHT22;12611;44.446;26.000;2023-07-02T05:31:12;24.00;90.40
24426;DHT22;12611;44.446;26.000;2023-07-02T05:33:40;24.10;90.30
24426;DHT22;12611;44.446;26.000;2023-07-02T05:36:09;24.10;90.20
24426;DHT22;12611;44.446;26.000;2023-07-02T05:38:39;24.10;90.20
24426;DHT22;12611;44.446;26.000;2023-07-02T05:41:07;24.20;90.10
24426;DHT22;12611;44.446;26.000;2023-07-02T05:43:36;24.30;90.10
24426;DHT22;12611;44.446;26.000;2023-07-02T05:46:04;24.30;90.00
24426;DHT22;12611;44.446;26.000;2023-07-02T05:48:32;24.40;90.00
24426;DHT22;12611;44.446;26.000;2023-07-02T05:51:02;24.50;90.00
24426;DHT22;12611;44.446;26.000;2023-07-02T05:53:31;24.50;90.00
24426;DHT22;12611;44.446;26.000;2023-07-02T05:56:00;24.60;89.80
24426;DHT22;12611;44.446;26.000;2023-07-02T05:58:29;24.70;89.90
24426;DHT22;12611;44.446;26.000;2023-07-02T06:01:13;24.70;90.20
24426;DHT22;12611;44.446;26.000;2023-07-02T06:03:42;24.80;90.00
24426;DHT22;12611;44.446;26.000;2023-07-02T06:06:12;24.90;90.00
24426;DHT22;12611;44.446;26.000;2023-07-02T06:08:40;24.90;89.90
24426;DHT22;12611;44.446;26.000;2023-07-02T06:11:11;25.00;89.80
24426;DHT22;12611;44.446;26.000;2023-07-02T06:13:39;25.10;89.50
24426;DHT22;12611;44.446;26.000;2023-07-02T06:16:07;25.10;89.50
24426;DHT22;12611;44.446;26.000;2023-07-02T06:18:36;25.20;88.80
24426;DHT22;12611;44.446;26.000;2023-07-02T06:21:04;25.30;88.30
24426;DHT22;12611;44.446;26.000;2023-07-02T06:23:40;25.30;87.60
24426;DHT22;12611;44.446;26.000;2023-07-02T06:26:10;25.40;87.20
24426;DHT22;12611;44.446;26.000;2023-07-02T06:28:39;25.50;86.90
24426;DHT22;12611;44.446;26.000;2023-07-02T06:31:07;25.50;87.40
24426;DHT22;12611;44.446;26.000;2023-07-02T06:33:39;25.60;87.20
24426;DHT22;12611;44.446;26.000;2023-07-02T06:36:07;25.60;86.90
24426;DHT22;12611;44.446;26.000;2023-07-02T06:38:38;25.70;86.70
24426;DHT22;12611;44.446;26.000;2023-07-02T06:41:11;25.80;86.40
24426;DHT22;12611;44.446;26.000;2023-07-02T06:43:41;25.80;86.30
24426;DHT22;12611;44.446;26.000;2023-07-02T06:46:10;25.90;85.30
24426;DHT22;12611;44.446;26.000;2023-07-02T06:48:39;26.00;85.30
24426;DHT22;12611;44.446;26.000;2023-07-02T06:51:07;26.10;85.10
24426;DHT22;12611;44.446;26.000;2023-07-02T06:53:36;26.10;85.00
24426;DHT22;12611;44.446;26.000;2023-07-02T06:56:04;26.20;84.80
24426;DHT22;12611;44.446;26.000;2023-07-02T06:58:34;26.30;84.60
24426;DHT22;12611;44.446;26.000;2023-07-02T07:01:03;26.30;84.20
24426;DHT22;12611;44.446;26.000;2023-07-02T07:03:31;26.30;84.20
24426;DHT22;12611;44.446;26.000;2023-07-02T07:06:00;26.40;84.00
24426;DHT22;12611;44.446;26.000;2023-07-02T07:08:28;26.50;83.90
24426;DHT22;12611;44.446;26.000;2023-07-02T07:10:56;26.50;83.40
24426;DHT22;12611;44.446;26.000;2023-07-02T07:13:25;26.50;83.30
24426;DHT22;12611;44.446;26.000;2023-07-02T07:15:54;26.50;83.60
24426;DHT22;12611;44.446;26.000;2023-07-02T07:18:23;26.70;83.50
24426;DHT22;12611;44.446;26.000;2023-07-02T07:20:51;26.70;83.20
24426;DHT22;12611;44.446;26.000;2023-07-02T07:23:20;26.80;83.40
24426;DHT22;12611;44.446;26.000;2023-07-02T07:25:48;26.90;82.90
24426;DHT22;12611;44.446;26.000;2023-07-02T07:28:17;26.90;82.40
24426;DHT22;12611;44.446;26.000;2023-07-02T07:30:46;27.00;82.50
24426;DHT22;12611;44.446;26.000;2023-07-02T07:33:16;27.10;82.40
24426;DHT22;12611;44.446;26.000;2023-07-02T07:35:45;27.20;82.50
24426;DHT22;12611;44.446;26.000;2023-07-02T07:38:13;27.30;81.20
24426;DHT22;12611;44.446;26.000;2023-07-02T07:40:43;27.30;80.60
24426;DHT22;12611;44.446;26.000;2023-07-02T07:43:12;27.30;79.60
24426;DHT22;12611;44.446;26.000;2023-07-02T07:45:40;27.30;78.60
24426;DHT22;12611;44.446;26.000;2023-07-02T07:48:09;27.40;77.90
24426;DHT22;12611;44.446;26.000;2023-07-02T07:50:39;27.40;77.20
24426;DHT22;12611;44.446;26.000;2023-07-02T07:53:07;27.50;77.80
24426;DHT22;12611;44.446;26.000;2023-07-02T07:55:35;27.60;77.90
24426;DHT22;12611;44.446;26.000;2023-07-02T07:58:04;27.70;77.40
24426;DHT22;12611;44.446;26.000;2023-07-02T08:00:32;27.70;77.00
24426;DHT22;12611;44.446;26.000;2023-07-02T08:03:00;27.80;76.40
24426;DHT22;12611;44.446;26.000;2023-07-02T08:05:30;27.80;76.20
24426;DHT22;12611;44.446;26.000;2023-07-02T08:08:00;27.90;76.40
24426;DHT22;12611;44.446;26.000;2023-07-02T08:10:29;27.90;75.50
24426;DHT22;12611;44.446;26.000;2023-07-02T08:12:57;28.00;75.10
24426;DHT22;12611;44.446;26.000;2023-07-02T08:15:25;28.00;74.30
24426;DHT22;12611;44.446;26.000;2023-07-02T08:17:54;28.10;73.80
24426;DHT22;12611;44.446;26.000;2023-07-02T08:20:25;28.10;73.40
24426;DHT22;12611;44.446;26.000;2023-07-02T08:22:53;28.20;72.80
24426;DHT22;12611;44.446;26.000;2023-07-02T08:25:23;28.20;72.20
24426;DHT22;12611;44.446;26.000;2023-07-02T08:27:54;28.30;72.50
24426;DHT22;12611;44.446;26.000;2023-07-02T08:30:22;28.30;72.40
24426;DHT22;12611;44.446;26.000;2023-07-02T08:32:52;28.30;71.00
24426;DHT22;12611;44.446;26.000;2023-07-02T08:35:22;28.30;71.30
24426;DHT22;12611;44.446;26.000;2023-07-02T08:37:51;28.40;71.40
24426;DHT22;12611;44.446;26.000;2023-07-02T08:40:20;28.50;71.60
24426;DHT22;12611;44.446;26.000;2023-07-02T08:42:49;28.60;72.20
24426;DHT22;12611;44.446;26.000;2023-07-02T08:45:18;28.60;72.30
24426;DHT22;12611;44.446;26.000;2023-07-02T08:47:48;28.70;71.50
24426;DHT22;12611;44.446;26.000;2023-07-02T08:50:18;28.70;70.40
24426;DHT22;12611;44.446;26.000;2023-07-02T08:52:46;28.80;70.30
24426;DHT22;12611;44.446;26.000;2023-07-02T08:55:15;28.80;70.40
24426;DHT22;12611;44.446;26.000;2023-07-02T08:57:52;28.80;69.10
24426;DHT22;12611;44.446;26.000;2023-07-02T09:00:21;28.80;67.70
24426;DHT22;12611;44.446;26.000;2023-07-02T09:02:49;28.90;68.70
24426;DHT22;12611;44.446;26.000;2023-07-02T09:05:18;29.00;68.70
24426;DHT22;12611;44.446;26.000;2023-07-02T09:07:47;29.00;68.30
24426;DHT22;12611;44.446;26.000;2023-07-02T09:10:27;29.10;68.20
24426;DHT22;12611;44.446;26.000;2023-07-02T09:13:07;29.20;68.20
24426;DHT22;12611;44.446;26.000;2023-07-02T09:15:37;29.20;66.90
24426;DHT22;12611;44.446;26.000;2023-07-02T09:18:19;29.20;65.50
24426;DHT22;12611;44.446;26.000;2023-07-02T09:20:50;29.30;65.90
24426;DHT22;12611;44.446;26.000;2023-07-02T09:23:19;29.30;65.50
24426;DHT22;12611;44.446;26.000;2023-07-02T09:25:47;29.40;65.50
24426;DHT22;12611;44.446;26.000;2023-07-02T09:28:18;29.40;65.30
24426;DHT22;12611;44.446;26.000;2023-07-02T09:30:55;29.40;65.40
24426;DHT22;12611;44.446;26.000;2023-07-02T09:33:24;29.60;65.90
24426;DHT22;12611;44.446;26.000;2023-07-02T09:35:53;29.60;65.50
24426;DHT22;12611;44.446;26.000;2023-07-02T09:38:22;29.70;64.80
24426;DHT22;12611;44.446;26.000;2023-07-02T09:40:51;29.70;64.30
24426;DHT22;12611;44.446;26.000;2023-07-02T09:43:22;29.80;64.80
24426;DHT22;12611;44.446;26.000;2023-07-02T09:45:54;29.80;64.40
24426;DHT22;12611;44.446;26.000;2023-07-02T09:48:24;29.90;64.30
24426;DHT22;12611;44.446;26.000;2023-07-02T09:50:54;29.90;63.10
24426;DHT22;12611;44.446;26.000;2023-07-02T09:53:23;29.90;63.10
24426;DHT22;12611;44.446;26.000;2023-07-02T09:55:52;29.90;63.30
24426;DHT22;12611;44.446;26.000;2023-07-02T09:58:21;30.00;62.90
24426;DHT22;12611;44.446;26.000;2023-07-02T10:00:50;30.00;62.60
24426;DHT22;12611;44.446;26.000;2023-07-02T10:03:28;30.00;62.40
24426;DHT22;12611;44.446;26.000;2023-07-02T10:06:04;30.00;61.90
24426;DHT22;12611;44.446;26.000;2023-07-02T10:08:33;30.10;62.10
24426;DHT22;12611;44.446;26.000;2023-07-02T10:11:09;30.10;62.50
24426;DHT22;12611;44.446;26.000;2023-07-02T10:13:38;30.10;62.80
24426;DHT22;12611;44.446;26.000;2023-07-02T10:16:08;30.10;62.30
24426;DHT22;12611;44.446;26.000;2023-07-02T10:18:36;30.20;62.10
24426;DHT22;12611;44.446;26.000;2023-07-02T10:21:14;30.10;61.90
24426;DHT22;12611;44.446;26.000;2023-07-02T10:23:43;30.10;65.20
24426;DHT22;12611;44.446;26.000;2023-07-02T10:26:15;30.00;68.80
24426;DHT22;12611;44.446;26.000;2023-07-02T10:28:57;29.90;70.00
24426;DHT22;12611;44.446;26.000;2023-07-02T10:31:26;29.80;71.90
24426;DHT22;12611;44.446;26.000;2023-07-02T10:33:54;29.80;72.50
24426;DHT22;12611;44.446;26.000;2023-07-02T10:36:24;29.70;73.00
24426;DHT22;12611;44.446;26.000;2023-07-02T10:38:53;29.60;73.80
24426;DHT22;12611;44.446;26.000;2023-07-02T10:41:25;29.70;73.50
24426;DHT22;12611;44.446;26.000;2023-07-02T10:43:54;29.80;73.40
24426;DHT22;12611;44.446;26.000;2023-07-02T10:46:24;29.90;73.10
24426;DHT22;12611;44.446;26.000;2023-07-02T10:48:53;30.10;73.00
24426;DHT22;12611;44.446;26.000;2023-07-02T10:51:22;30.10;71.90
24426;DHT22;12611;44.446;26.000;2023-07-02T10:53:57;30.10;71.60
24426;DHT22;12611;44.446;26.000;2023-07-02T10:56:27;30.10;70.90
24426;DHT22;12611;44.446;26.000;2023-07-02T10:58:55;30.10;70.60
24426;DHT22;12611;44.446;26.000;2023-07-02T11:01:26;30.10;69.00
24426;DHT22;12611;44.446;26.000;2023-07-02T11:03:59;30.10;68.90
24426;DHT22;12611;44.446;26.000;2023-07-02T11:06:28;30.00;68.10
24426;DHT22;12611;44.446;26.000;2023-07-02T11:08:56;30.00;67.90
24426;DHT22;12611;44.446;26.000;2023-07-02T11:11:25;30.00;69.10
24426;DHT22;12611;44.446;26.000;2023-07-02T11:13:53;29.90;70.00
24426;DHT22;12611;44.446;26.000;2023-07-02T11:16:25;29.90;70.20
24426;DHT22;12611;44.446;26.000;2023-07-02T11:19:07;29.90;70.80
24426;DHT22;12611;44.446;26.000;2023-07-02T11:21:36;29.90;70.60
24426;DHT22;12611;44.446;26.000;2023-07-02T11:24:06;29.90;70.70
24426;DHT22;12611;44.446;26.000;2023-07-02T11:26:35;29.90;71.00
24426;DHT22;12611;44.446;26.000;2023-07-02T11:29:06;29.90;70.20
24426;DHT22;12611;44.446;26.000;2023-07-02T11:31:38;29.90;70.10
24426;DHT22;12611;44.446;26.000;2023-07-02T11:34:11;29.90;69.60
24426;DHT22;12611;44.446;26.000;2023-07-02T11:36:40;30.00;69.00
24426;DHT22;12611;44.446;26.000;2023-07-02T11:39:09;30.10;68.80
24426;DHT22;12611;44.446;26.000;2023-07-02T11:41:37;30.20;68.20
24426;DHT22;12611;44.446;26.000;2023-07-02T11:44:06;30.20;66.40
24426;DHT22;12611;44.446;26.000;2023-07-02T11:46:34;30.20;66.70
24426;DHT22;12611;44.446;26.000;2023-07-02T11:49:04;30.20;66.10
24426;DHT22;12611;44.446;26.000;2023-07-02T11:51:35;30.20;65.50
24426;DHT22;12611;44.446;26.000;2023-07-02T11:54:04;30.30;65.50
24426;DHT22;12611;44.446;26.000;2023-07-02T11:56:33;30.20;64.80
24426;DHT22;12611;44.446;26.000;2023-07-02T11:59:01;30.30;64.20
24426;DHT22;12611;44.446;26.000;2023-07-02T12:01:31;30.20;63.00
24426;DHT22;12611;44.446;26.000;2023-07-02T12:03:59;30.20;62.80
24426;DHT22;12611;44.446;26.000;2023-07-02T12:06:29;30.20;63.00
24426;DHT22;12611;44.446;26.000;2023-07-02T12:08:57;30.30;63.30
24426;DHT22;12611;44.446;26.000;2023-07-02T12:11:26;30.30;62.70
24426;DHT22;12611;44.446;26.000;2023-07-02T12:13:54;30.30;62.50
24426;DHT22;12611;44.446;26.000;2023-07-02T12:16:22;30.40;62.50
24426;DHT22;12611;44.446;26.000;2023-07-02T12:18:51;30.50;62.20
24426;DHT22;12611;44.446;26.000;2023-07-02T12:21:19;30.50;60.90
24426;DHT22;12611;44.446;26.000;2023-07-02T12:23:49;30.50;60.20
24426;DHT22;12611;44.446;26.000;2023-07-02T12:26:17;30.60;59.90
24426;DHT22;12611;44.446;26.000;2023-07-02T12:28:45;30.60;59.40
24426;DHT22;12611;44.446;26.000;2023-07-02T12:31:13;30.60;58.80
24426;DHT22;12611;44.446;26.000;2023-07-02T12:33:42;30.70;59.20
24426;DHT22;12611;44.446;26.000;2023-07-02T12:36:10;30.70;58.80
24426;DHT22;12611;44.446;26.000;2023-07-02T12:38:39;30.70;59.10
24426;DHT22;12611;44.446;26.000;2023-07-02T12:41:08;30.70;58.80
24426;DHT22;12611;44.446;26.000;2023-07-02T12:43:37;30.70;59.00
24426;DHT22;12611;44.446;26.000;2023-07-02T12:46:06;30.70;59.70
24426;DHT22;12611;44.446;26.000;2023-07-02T12:48:34;30.60;60.20
24426;DHT22;12611;44.446;26.000;2023-07-02T12:51:03;30.60;60.80
24426;DHT22;12611;44.446;26.000;2023-07-02T12:53:31;30.50;61.20
24426;DHT22;12611;44.446;26.000;2023-07-02T12:55:59;30.50;61.60
24426;DHT22;12611;44.446;26.000;2023-07-02T12:58:29;30.40;61.30
24426;DHT22;12611;44.446;26.000;2023-07-02T13:00:57;30.30;61.30
24426;DHT22;12611;44.446;26.000;2023-07-02T13:03:26;30.30;61.30
24426;DHT22;12611;44.446;26.000;2023-07-02T13:05:54;30.30;61.40
24426;DHT22;12611;44.446;26.000;2023-07-02T13:08:22;30.30;61.60
24426;DHT22;12611;44.446;26.000;2023-07-02T13:10:51;30.40;60.80
24426;DHT22;12611;44.446;26.000;2023-07-02T13:13:19;30.30;60.60
24426;DHT22;12611;44.446;26.000;2023-07-02T13:15:51;30.50;61.00
24426;DHT22;12611;44.446;26.000;2023-07-02T13:18:19;30.70;61.70
24426;DHT22;12611;44.446;26.000;2023-07-02T13:20:47;31.00;62.20
24426;DHT22;12611;44.446;26.000;2023-07-02T13:23:16;31.20;61.80
24426;DHT22;12611;44.446;26.000;2023-07-02T13:25:44;31.40;61.50
24426;DHT22;12611;44.446;26.000;2023-07-02T13:28:13;31.40;61.40
24426;DHT22;12611;44.446;26.000;2023-07-02T13:30:41;31.50;61.10
24426;DHT22;12611;44.446;26.000;2023-07-02T13:33:11;31.50;60.50
24426;DHT22;12611;44.446;26.000;2023-07-02T13:35:39;31.50;59.10
24426;DHT22;12611;44.446;26.000;2023-07-02T13:38:08;31.50;58.30
24426;DHT22;12611;44.446;26.000;2023-07-02T13:40:36;31.50;58.20
24426;DHT22;12611;44.446;26.000;2023-07-02T13:43:05;31.40;57.40
24426;DHT22;12611;44.446;26.000;2023-07-02T13:45:33;31.40;58.00
24426;DHT22;12611;44.446;26.000;2023-07-02T13:48:01;31.40;58.20
24426;DHT22;12611;44.446;26.000;2023-07-02T13:50:31;31.40;58.00
24426;DHT22;12611;44.446;26.000;2023-07-02T13:53:00;31.50;58.10
24426;DHT22;12611;44.446;26.000;2023-07-02T13:55:28;31.50;57.50
24426;DHT22;12611;44.446;26.000;2023-07-02T13:57:57;31.50;57.50
24426;DHT22;12611;44.446;26.000;2023-07-02T14:00:28;31.50;57.20
24426;DHT22;12611;44.446;26.000;2023-07-02T14:02:57;31.50;56.90
24426;DHT22;12611;44.446;26.000;2023-07-02T14:05:26;31.50;55.60
24426;DHT22;12611;44.446;26.000;2023-07-02T14:07:54;31.50;55.70
24426;DHT22;12611;44.446;26.000;2023-07-02T14:10:22;31.50;54.60
24426;DHT22;12611;44.446;26.000;2023-07-02T14:12:51;31.50;54.30
24426;DHT22;12611;44.446;26.000;2023-07-02T14:15:20;31.50;54.30
24426;DHT22;12611;44.446;26.000;2023-07-02T14:17:49;31.60;54.70
24426;DHT22;12611;44.446;26.000;2023-07-02T14:20:18;31.70;54.80
24426;DHT22;12611;44.446;26.000;2023-07-02T14:22:46;31.70;54.80
24426;DHT22;12611;44.446;26.000;2023-07-02T14:25:15;31.90;54.70
24426;DHT22;12611;44.446;26.000;2023-07-02T14:27:58;32.40;54.40
24426;DHT22;12611;44.446;26.000;2023-07-02T14:30:26;32.90;52.20
24426;DHT22;12611;44.446;26.000;2023-07-02T14:32:56;33.20;51.80
24426;DHT22;12611;44.446;26.000;2023-07-02T14:35:24;33.50;50.80
24426;DHT22;12611;44.446;26.000;2023-07-02T14:37:55;33.60;49.80
24426;DHT22;12611;44.446;26.000;2023-07-02T14:40:23;33.50;49.60
24426;DHT22;12611;44.446;26.000;2023-07-02T14:42:51;33.60;49.80
24426;DHT22;12611;44.446;26.000;2023-07-02T14:45:20;33.60;50.20
24426;DHT22;12611;44.446;26.000;2023-07-02T14:47:48;33.50;50.00
24426;DHT22;12611;44.446;26.000;2023-07-02T14:50:18;33.30;50.20
24426;DHT22;12611;44.446;26.000;2023-07-02T14:52:46;33.00;50.00
24426;DHT22;12611;44.446;26.000;2023-07-02T14:55:14;32.90;50.20
24426;DHT22;12611;44.446;26.000;2023-07-02T14:57:43;32.70;50.40
24426;DHT22;12611;44.446;26.000;2023-07-02T15:00:12;32.60;50.70
24426;DHT22;12611;44.446;26.000;2023-07-02T15:02:41;32.60;51.00
24426;DHT22;12611;44.446;26.000;2023-07-02T15:05:09;32.50;51.30
24426;DHT22;12611;44.446;26.000;2023-07-02T15:07:39;32.40;51.30
24426;DHT22;12611;44.446;26.000;2023-07-02T15:10:08;32.40;51.60
24426;DHT22;12611;44.446;26.000;2023-07-02T15:12:36;32.40;51.50
24426;DHT22;12611;44.446;26.000;2023-07-02T15:15:05;32.30;51.20
24426;DHT22;12611;44.446;26.000;2023-07-02T15:17:33;32.30;51.40
24426;DHT22;12611;44.446;26.000;2023-07-02T15:20:01;32.30;51.50
24426;DHT22;12611;44.446;26.000;2023-07-02T15:22:30;32.20;51.70
24426;DHT22;12611;44.446;26.000;2023-07-02T15:25:00;32.20;52.00
24426;DHT22;12611;44.446;26.000;2023-07-02T15:27:29;32.20;51.80